Hlavní strana
METAR-TAF:

METAR-TAF

Letiště :

Jackson, Tennessee, Spojené státy americké

zeměpisná šířka: 35-35-35N, zeměpisná délka: 088-55-00W, výška: 132 m

Aktuální stav počasí

Zpráva byla vytvořena před 23 minutami, v 09:53 UTC
Severoseverozápadní vítr 6 kt
Teplota 0°C
Vlhkost vzduchu 80%
Tlak 1023 hPa
Viditelnost: 16.1 km
Jasno

METAR: KMKL 180953Z AUTO 33006KT 10SM CLR 00/M03 A3020 RMK AO2 SLP229 T00001033 $

Čas: 04:16 (10:16 UTC)

Předpověď počasí

Zpráva byla vytvořena před 4 hodinami a 53 minutami, v 05:23 UTC
Předpověď platná od 18 v 06 UTC do 19 v 06 UTC
Severoseverozápadní vítr 8 kt
Viditelnost: 10 km
Oblačno až skoro zataženo ve výšce 25000 ft
Od 18 v 1500 UTC
Severní vítr 10 kt
Viditelnost: 10 km
Oblačno až skoro zataženo ve výšce 25000 ft
Od 19 v 0000 UTC
Severoseverovýchodní vítr 10 kt
Viditelnost: 10 km
Oblačno až skoro zataženo ve výšce 25000 ft

TAF: KMKL 180523Z 1806/1906 33008KT P6SM BKN250 FM181500 35010KT P6SM BKN250 FM190000 03010KT P6SM BKN250

Stav a předpovědi počasí z více než 4 000 letišť (zprávy METAR a TAF).

Červené a žluté tečky na mapě představují dostupné meteorologické stanice.

Když kurzor umístíte na tečku, zobrazí se název stanice.

Pak kliknutím zobrazíte stav a předpověď počasí.

Chcete-li změnit mapu, kliknutím na zelené tlačítko se znaménkem +mapu přiblížíte, kliknutím na zelené tlačítko se znaménkem – mapu oddálíte a kliknutím na zelené šipky přejdete na sousední mapy.


METAR-TAF: